createdAt,value
2019-05-01T00:00:43.822Z,1009.27
2019-05-01T00:01:43.828Z,1009.26
2019-05-01T00:02:43.813Z,1009.27
2019-05-01T00:03:43.822Z,1009.26
2019-05-01T00:04:43.780Z,1009.22
2019-05-01T00:05:43.773Z,1009.18
2019-05-01T00:06:43.761Z,1009.23
2019-05-01T00:07:43.757Z,1009.18
2019-05-01T00:08:43.770Z,1009.16
2019-05-01T00:09:43.729Z,1009.13
2019-05-01T00:10:43.716Z,1009.13
2019-05-01T00:11:43.708Z,1009.10
2019-05-01T00:12:43.701Z,1009.11
2019-05-01T00:13:43.693Z,1009.09
2019-05-01T00:14:43.700Z,1009.09
2019-05-01T00:15:43.666Z,1009.06
2019-05-01T00:16:43.657Z,1009.09
2019-05-01T00:17:43.649Z,1009.06
2019-05-01T00:18:43.660Z,1009.06
2019-05-01T00:19:43.626Z,1009.04
2019-05-01T00:20:43.608Z,1009.03
2019-05-01T00:21:43.605Z,1009.02
2019-05-01T00:22:43.601Z,1009.03
2019-05-01T00:23:43.610Z,1009.03
2019-05-01T00:24:43.575Z,1009.01
2019-05-01T00:25:43.580Z,1008.99
2019-05-01T00:26:43.548Z,1008.97
2019-05-01T00:27:43.540Z,1008.96
2019-05-01T00:28:43.883Z,1008.95
2019-05-01T00:29:43.514Z,1008.95
2019-05-01T00:30:43.498Z,1008.92
2019-05-01T00:31:43.489Z,1008.88
2019-05-01T00:32:43.484Z,1008.86
2019-05-01T00:33:43.469Z,1008.88
2019-05-01T00:34:43.569Z,1008.82
2019-05-01T00:35:43.446Z,1008.84
2019-05-01T00:36:43.431Z,1008.85
2019-05-01T00:37:43.421Z,1008.83
2019-05-01T00:38:43.441Z,1008.84
2019-05-01T00:39:43.410Z,1008.82
2019-05-01T00:40:43.396Z,1008.82
2019-05-01T00:41:43.386Z,1008.85
2019-05-01T00:42:43.368Z,1008.84
2019-05-01T00:43:43.427Z,1008.79
2019-05-01T00:44:43.378Z,1008.79
2019-05-01T00:45:43.337Z,1008.79
2019-05-01T00:46:43.337Z,1008.75
2019-05-01T00:47:43.388Z,1008.76
2019-05-01T00:48:43.311Z,1008.72
2019-05-01T00:49:43.329Z,1008.69
2019-05-01T00:50:43.286Z,1008.69
2019-05-01T00:51:43.276Z,1008.72
2019-05-01T00:52:43.269Z,1008.68
2019-05-01T00:53:43.266Z,1008.70
2019-05-01T00:54:43.273Z,1008.67
2019-05-01T00:55:43.231Z,1008.67
2019-05-01T00:56:43.221Z,1008.67
2019-05-01T00:57:43.210Z,1008.65
2019-05-01T00:58:43.232Z,1008.64
2019-05-01T00:59:43.219Z,1008.67
2019-05-01T01:00:43.544Z,1008.68
2019-05-01T01:01:43.178Z,1008.65
2019-05-01T01:02:43.163Z,1008.64
2019-05-01T01:03:43.192Z,1008.62
2019-05-01T01:04:43.143Z,1008.65
2019-05-01T01:05:43.205Z,1008.62
2019-05-01T01:06:43.119Z,1008.63
2019-05-01T01:07:43.140Z,1008.63
2019-05-01T01:08:43.094Z,1008.62
2019-05-01T01:09:43.109Z,1008.60
2019-05-01T01:10:43.076Z,1008.62
2019-05-01T01:11:43.099Z,1008.63
2019-05-01T01:12:43.054Z,1008.60
2019-05-01T01:13:43.083Z,1008.63
2019-05-01T01:14:43.066Z,1008.61
2019-05-01T01:15:43.042Z,1008.59
2019-05-01T01:16:43.005Z,1008.59
2019-05-01T01:17:43.849Z,1008.60
2019-05-01T01:18:42.988Z,1008.60
2019-05-01T01:19:42.986Z,1008.58
2019-05-01T01:20:42.997Z,1008.57
2019-05-01T01:21:42.971Z,1008.56
2019-05-01T01:22:42.942Z,1008.53
2019-05-01T01:23:42.958Z,1008.53
2019-05-01T01:24:42.949Z,1008.54
2019-05-01T01:25:42.913Z,1008.53
2019-05-01T01:26:42.896Z,1008.47
2019-05-01T01:27:42.936Z,1008.52
2019-05-01T01:28:42.877Z,1008.47
2019-05-01T01:29:42.893Z,1008.48
2019-05-01T01:30:55.430Z,1008.51
2019-05-01T01:31:43.849Z,1008.45
2019-05-01T01:32:42.840Z,1008.46
2019-05-01T01:33:42.851Z,1008.44
2019-05-01T01:34:42.840Z,1008.42
2019-05-01T01:35:42.806Z,1008.40
2019-05-01T01:36:42.792Z,1008.44
2019-05-01T01:37:42.781Z,1008.42
2019-05-01T01:38:42.775Z,1008.44
2019-05-01T01:39:42.798Z,1008.41
2019-05-01T01:40:42.748Z,1008.39
2019-05-01T01:41:42.737Z,1008.34
2019-05-01T01:42:42.762Z,1008.36
2019-05-01T01:43:42.736Z,1008.30
2019-05-01T01:44:42.769Z,1008.32
2019-05-01T01:45:42.758Z,1008.34
2019-05-01T01:46:42.681Z,1008.34
2019-05-01T01:47:42.673Z,1008.35
2019-05-01T01:48:42.681Z,1008.33
2019-05-01T01:49:42.652Z,1008.27
2019-05-01T01:50:42.681Z,1008.29
2019-05-01T01:51:42.636Z,1008.23
2019-05-01T01:52:42.625Z,1008.24
2019-05-01T01:53:42.621Z,1008.19
2019-05-01T01:54:42.595Z,1008.19
2019-05-01T01:55:42.588Z,1008.20
2019-05-01T01:56:42.610Z,1008.19
2019-05-01T01:57:42.566Z,1008.18
2019-05-01T01:58:42.562Z,1008.19
2019-05-01T01:59:42.542Z,1008.16
2019-05-01T02:00:42.530Z,1008.16
2019-05-01T02:01:42.519Z,1008.15
2019-05-01T02:02:42.544Z,1008.17
2019-05-01T02:03:42.510Z,1008.15
2019-05-01T02:04:42.495Z,1008.14
2019-05-01T02:05:42.483Z,1008.13
2019-05-01T02:06:42.494Z,1008.08
2019-05-01T02:07:42.485Z,1008.09
2019-05-01T02:08:42.447Z,1008.06
2019-05-01T02:09:42.437Z,1008.08
2019-05-01T02:10:43.325Z,1008.04
2019-05-01T02:11:42.417Z,1008.01
2019-05-01T02:12:42.432Z,1008.00
2019-05-01T02:13:42.402Z,1008.01
2019-05-01T02:14:42.396Z,1007.99
2019-05-01T02:15:42.381Z,1007.97
2019-05-01T02:16:42.369Z,1007.98
2019-05-01T02:17:42.386Z,1007.94
2019-05-01T02:18:42.343Z,1007.94
2019-05-01T02:19:42.337Z,1007.98
2019-05-01T02:20:42.346Z,1007.97
2019-05-01T02:21:42.307Z,1007.97
2019-05-01T02:22:42.301Z,1007.98
2019-05-01T02:23:42.295Z,1007.90
2019-05-01T02:24:42.281Z,1007.91
2019-05-01T02:25:42.296Z,1007.93
2019-05-01T02:26:42.255Z,1007.96
2019-05-01T02:27:42.247Z,1007.93
2019-05-01T02:28:42.243Z,1007.91
2019-05-01T02:29:42.282Z,1007.89
2019-05-01T02:30:42.252Z,1007.89
2019-05-01T02:31:42.214Z,1007.87
2019-05-01T02:32:42.191Z,1007.90
2019-05-01T02:33:42.183Z,1007.88
2019-05-01T02:34:42.181Z,1007.88
2019-05-01T02:35:42.173Z,1007.85
2019-05-01T02:36:42.192Z,1007.85
2019-05-01T02:37:42.157Z,1007.86
2019-05-01T02:38:42.129Z,1007.84
2019-05-01T02:39:42.144Z,1007.85
2019-05-01T02:40:42.160Z,1007.90
2019-05-01T02:41:42.098Z,1007.88
2019-05-01T02:42:42.099Z,1007.88
2019-05-01T02:43:42.073Z,1007.79
2019-05-01T02:44:42.076Z,1007.81
2019-05-01T02:45:42.086Z,1007.84
2019-05-01T02:46:42.038Z,1007.86
2019-05-01T02:47:42.033Z,1007.81
2019-05-01T02:48:42.028Z,1007.84
2019-05-01T02:49:42.013Z,1007.85
2019-05-01T02:50:42.048Z,1007.84
2019-05-01T02:51:42.056Z,1007.90
2019-05-01T02:52:42.012Z,1007.80
2019-05-01T02:53:41.984Z,1007.83
2019-05-01T02:54:42.004Z,1007.83
2019-05-01T02:55:41.983Z,1007.80
2019-05-01T02:56:41.932Z,1007.80
2019-05-01T02:57:41.998Z,1007.76
2019-05-01T02:58:41.911Z,1007.74
2019-05-01T02:59:41.955Z,1007.71
2019-05-01T03:00:41.927Z,1007.79
2019-05-01T03:01:47.381Z,1007.71
2019-05-01T03:02:42.880Z,1007.73
2019-05-01T03:03:41.865Z,1007.72
2019-05-01T03:04:41.847Z,1007.68
2019-05-01T03:05:41.885Z,1007.77
2019-05-01T03:06:41.828Z,1007.74
2019-05-01T03:07:41.835Z,1007.71
2019-05-01T03:08:41.800Z,1007.74
2019-05-01T03:09:41.787Z,1007.68
2019-05-01T03:10:41.780Z,1007.62
2019-05-01T03:11:41.769Z,1007.68
2019-05-01T03:12:41.784Z,1007.65
2019-05-01T03:13:41.751Z,1007.63
2019-05-01T03:14:41.742Z,1007.62
2019-05-01T03:15:41.721Z,1007.59
2019-05-01T03:16:41.726Z,1007.60
2019-05-01T03:17:41.742Z,1007.55
2019-05-01T03:18:41.706Z,1007.57
2019-05-01T03:19:41.681Z,1007.56
2019-05-01T03:20:41.666Z,1007.58
2019-05-01T03:21:41.661Z,1007.54
2019-05-01T03:22:41.693Z,1007.50
2019-05-01T03:23:41.642Z,1007.59
2019-05-01T03:24:41.632Z,1007.56
2019-05-01T03:25:41.618Z,1007.51
2019-05-01T03:26:41.627Z,1007.48
2019-05-01T03:27:41.618Z,1007.47
2019-05-01T03:28:41.579Z,1007.49
2019-05-01T03:29:41.568Z,1007.52
2019-05-01T03:30:41.576Z,1007.52
2019-05-01T03:31:41.553Z,1007.52
2019-05-01T03:32:41.560Z,1007.60
2019-05-01T03:33:41.548Z,1007.56
2019-05-01T03:34:41.558Z,1007.58
2019-05-01T03:35:41.506Z,1007.55
2019-05-01T03:36:41.519Z,1007.52
2019-05-01T03:37:41.489Z,1007.53
2019-05-01T03:38:41.494Z,1007.52
2019-05-01T03:39:41.457Z,1007.52
2019-05-01T03:40:41.478Z,1007.52
2019-05-01T03:41:41.439Z,1007.51
2019-05-01T03:42:41.470Z,1007.57
2019-05-01T03:43:41.425Z,1007.48
2019-05-01T03:44:41.412Z,1007.56
2019-05-01T03:45:41.412Z,1007.51
2019-05-01T03:46:41.386Z,1007.55
2019-05-01T03:47:41.399Z,1007.49
2019-05-01T03:48:41.367Z,1007.53
2019-05-01T03:49:41.389Z,1007.45
2019-05-01T03:50:41.390Z,1007.50
2019-05-01T03:51:41.328Z,1007.53
2019-05-01T03:52:41.321Z,1007.46
2019-05-01T03:53:41.309Z,1007.42
2019-05-01T03:54:41.303Z,1007.46
2019-05-01T03:55:41.316Z,1007.52
2019-05-01T03:56:41.281Z,1007.50
2019-05-01T03:57:41.292Z,1007.47
2019-05-01T03:58:41.248Z,1007.47
2019-05-01T03:59:41.238Z,1007.51
2019-05-01T04:00:41.227Z,1007.52
2019-05-01T04:01:41.220Z,1007.53
2019-05-01T04:02:41.240Z,1007.47
2019-05-01T04:03:41.199Z,1007.48
2019-05-01T04:04:41.185Z,1007.45
2019-05-01T04:05:41.179Z,1007.46
2019-05-01T04:06:41.182Z,1007.46
2019-05-01T04:07:41.159Z,1007.50
2019-05-01T04:08:41.237Z,1007.48
2019-05-01T04:09:41.134Z,1007.49
2019-05-01T04:10:41.118Z,1007.51
2019-05-01T04:11:41.107Z,1007.51
2019-05-01T04:12:41.101Z,1007.58
2019-05-01T04:13:41.088Z,1007.52
2019-05-01T04:14:41.112Z,1007.54
2019-05-01T04:15:41.070Z,1007.56
2019-05-01T04:16:41.073Z,1007.53
2019-05-01T04:17:41.079Z,1007.54
2019-05-01T04:18:41.047Z,1007.53
2019-05-01T04:19:41.021Z,1007.54
2019-05-01T04:20:41.019Z,1007.53
2019-05-01T04:21:41.003Z,1007.55
2019-05-01T04:22:41.007Z,1007.57
2019-05-01T04:23:41.009Z,1007.56
2019-05-01T04:24:40.967Z,1007.55
2019-05-01T04:25:40.961Z,1007.58
2019-05-01T04:26:40.952Z,1007.58
2019-05-01T04:27:40.949Z,1007.58
2019-05-01T04:28:40.933Z,1007.55
2019-05-01T04:29:40.951Z,1007.60
2019-05-01T04:30:40.903Z,1007.61
2019-05-01T04:31:40.892Z,1007.60
2019-05-01T04:32:52.240Z,1007.60
2019-05-01T04:33:41.869Z,1007.60
2019-05-01T04:34:40.894Z,1007.60
2019-05-01T04:35:40.855Z,1007.61
2019-05-01T04:36:40.843Z,1007.64
2019-05-01T04:37:40.827Z,1007.58
2019-05-01T04:38:40.820Z,1007.60
2019-05-01T04:39:40.837Z,1007.60
2019-05-01T04:40:40.799Z,1007.62
2019-05-01T04:41:40.791Z,1007.62
2019-05-01T04:42:40.778Z,1007.61
2019-05-01T04:43:40.785Z,1007.56
2019-05-01T04:44:40.760Z,1007.57
2019-05-01T04:45:40.744Z,1007.57
2019-05-01T04:46:40.735Z,1007.58
2019-05-01T04:47:40.747Z,1007.55
2019-05-01T04:48:40.742Z,1007.55
2019-05-01T04:49:40.733Z,1007.53
2019-05-01T04:50:40.691Z,1007.54
2019-05-01T04:51:40.673Z,1007.55
2019-05-01T04:52:40.753Z,1007.56
2019-05-01T04:53:40.685Z,1007.55
2019-05-01T04:54:40.666Z,1007.61
2019-05-01T04:55:40.629Z,1007.64
2019-05-01T04:56:40.619Z,1007.62
2019-05-01T04:57:40.608Z,1007.62
2019-05-01T04:58:40.628Z,1007.65
2019-05-01T04:59:40.619Z,1007.60
2019-05-01T05:00:40.584Z,1007.64
2019-05-01T05:01:40.572Z,1007.65
2019-05-01T05:02:40.556Z,1007.62
2019-05-01T05:03:40.568Z,1007.65
2019-05-01T05:04:40.534Z,1007.61
2019-05-01T05:05:40.522Z,1007.64
2019-05-01T05:06:40.515Z,1007.61
2019-05-01T05:07:40.505Z,1007.66
2019-05-01T05:08:40.515Z,1007.66
2019-05-01T05:09:40.478Z,1007.70
2019-05-01T05:10:40.474Z,1007.66
2019-05-01T05:11:40.470Z,1007.71
2019-05-01T05:12:40.451Z,1007.68
2019-05-01T05:13:40.475Z,1007.65
2019-05-01T05:14:40.431Z,1007.68
2019-05-01T05:15:40.412Z,1007.68
2019-05-01T05:16:40.402Z,1007.72
2019-05-01T05:17:40.391Z,1007.74
2019-05-01T05:18:40.389Z,1007.76
2019-05-01T05:19:40.409Z,1007.76
2019-05-01T05:20:40.366Z,1007.72
2019-05-01T05:21:40.353Z,1007.69
2019-05-01T05:22:40.333Z,1007.73
2019-05-01T05:23:40.327Z,1007.73
2019-05-01T05:24:40.349Z,1007.74
2019-05-01T05:25:40.312Z,1007.76
2019-05-01T05:26:40.324Z,1007.74
2019-05-01T05:27:40.282Z,1007.74
2019-05-01T05:28:40.345Z,1007.74
2019-05-01T05:29:40.293Z,1007.77
2019-05-01T05:30:40.252Z,1007.79
2019-05-01T05:31:40.244Z,1007.80
2019-05-01T05:32:40.230Z,1007.76
2019-05-01T05:33:40.220Z,1007.71
2019-05-01T05:34:40.244Z,1007.70
2019-05-01T05:35:40.195Z,1007.72
2019-05-01T05:36:40.182Z,1007.77
2019-05-01T05:37:40.169Z,1007.75
2019-05-01T05:38:40.174Z,1007.72
2019-05-01T05:39:40.184Z,1007.72
2019-05-01T05:40:40.140Z,1007.71
2019-05-01T05:41:40.133Z,1007.74
2019-05-01T05:42:40.139Z,1007.76
2019-05-01T05:43:40.112Z,1007.74
2019-05-01T05:44:40.104Z,1007.73
2019-05-01T05:45:40.120Z,1007.70
2019-05-01T05:46:40.078Z,1007.69
2019-05-01T05:47:40.072Z,1007.67
2019-05-01T05:48:40.068Z,1007.71
2019-05-01T05:49:40.173Z,1007.71
2019-05-01T05:50:40.073Z,1007.70
2019-05-01T05:51:40.027Z,1007.72
2019-05-01T05:52:40.016Z,1007.72
2019-05-01T05:53:40.005Z,1007.73
2019-05-01T05:54:39.990Z,1007.75
2019-05-01T05:55:40.037Z,1007.75
2019-05-01T05:56:39.973Z,1007.74
2019-05-01T05:57:39.997Z,1007.75
2019-05-01T05:58:39.952Z,1007.80
2019-05-01T05:59:39.937Z,1007.79
2019-05-01T06:00:39.951Z,1007.79
2019-05-01T06:01:39.914Z,1007.78
2019-05-01T06:02:39.913Z,1007.78
2019-05-01T06:03:39.897Z,1007.70
2019-05-01T06:04:39.888Z,1007.70
2019-05-01T06:05:39.932Z,1007.75
2019-05-01T06:06:39.860Z,1007.85
2019-05-01T06:07:39.849Z,1007.79
2019-05-01T06:08:39.840Z,1007.74
2019-05-01T06:09:39.828Z,1007.77
2019-05-01T06:10:39.824Z,1007.77
2019-05-01T06:11:39.847Z,1007.78
2019-05-01T06:12:41.704Z,1007.80
2019-05-01T06:13:40.789Z,1007.76
2019-05-01T06:14:39.781Z,1007.80
2019-05-01T06:15:41.134Z,1007.81
2019-05-01T06:16:40.476Z,1007.87
2019-05-01T06:17:39.748Z,1007.78
2019-05-01T06:18:40.578Z,1007.77
2019-05-01T06:19:39.731Z,1007.78
2019-05-01T06:20:39.831Z,1007.76
2019-05-01T06:21:39.833Z,1007.81
2019-05-01T06:22:40.831Z,1007.78
2019-05-01T06:23:40.683Z,1007.80
2019-05-01T06:24:40.678Z,1007.82
2019-05-01T06:25:39.673Z,1007.90
2019-05-01T06:26:39.662Z,1007.82
2019-05-01T06:27:39.658Z,1007.82
2019-05-01T06:28:39.640Z,1007.83
2019-05-01T06:29:39.672Z,1007.89
2019-05-01T06:30:42.006Z,1007.91
2019-05-01T06:31:40.593Z,1007.90
2019-05-01T06:32:40.100Z,1007.87
2019-05-01T06:33:44.416Z,1007.85
2019-05-01T06:34:40.599Z,1007.79
2019-05-01T06:35:39.555Z,1007.79
2019-05-01T06:36:39.542Z,1007.82
2019-05-01T06:37:39.536Z,1007.86
2019-05-01T06:38:39.538Z,1007.86
2019-05-01T06:39:42.926Z,1007.82
2019-05-01T06:40:40.491Z,1007.86
2019-05-01T06:41:42.667Z,1007.82
2019-05-01T06:42:39.479Z,1007.87
2019-05-01T06:43:39.489Z,1007.84
2019-05-01T06:44:44.074Z,1007.90
2019-05-01T06:45:40.445Z,1007.86
2019-05-01T06:46:39.437Z,1007.84
2019-05-01T06:47:43.041Z,1007.84
2019-05-01T06:48:39.449Z,1007.87
2019-05-01T06:49:39.403Z,1007.95
2019-05-01T06:50:41.493Z,1007.87
2019-05-01T06:51:39.450Z,1007.88
2019-05-01T06:52:39.373Z,1007.90
2019-05-01T06:53:39.881Z,1007.88
2019-05-01T06:54:39.349Z,1007.94
2019-05-01T06:55:39.341Z,1007.93
2019-05-01T06:56:39.355Z,1007.91
2019-05-01T06:57:43.841Z,1007.90
2019-05-01T06:58:40.335Z,1007.86
2019-05-01T06:59:39.293Z,1007.89
2019-05-01T07:00:43.129Z,1007.91
2019-05-01T07:01:39.665Z,1007.88
2019-05-01T07:02:39.296Z,1007.91
2019-05-01T07:03:40.861Z,1007.93
2019-05-01T07:04:40.264Z,1007.91
2019-05-01T07:05:39.230Z,1007.92
2019-05-01T07:06:39.220Z,1007.97
2019-05-01T07:07:39.243Z,1007.96
2019-05-01T07:08:39.683Z,1008.00
2019-05-01T07:09:39.224Z,1008.00
2019-05-01T07:10:44.048Z,1008.00
2019-05-01T07:11:42.351Z,1008.01
2019-05-01T07:12:39.153Z,1007.98
2019-05-01T07:13:40.061Z,1007.94
2019-05-01T07:14:39.169Z,1007.96
2019-05-01T07:15:39.152Z,1007.96
2019-05-01T07:16:39.357Z,1007.97
2019-05-01T07:17:39.096Z,1008.01
2019-05-01T07:18:39.100Z,1007.98
2019-05-01T07:19:40.296Z,1007.93
2019-05-01T07:20:39.068Z,1007.98
2019-05-01T07:21:39.073Z,1007.93
2019-05-01T07:22:42.179Z,1007.95
2019-05-01T07:23:39.035Z,1007.95
2019-05-01T07:24:39.028Z,1007.96
2019-05-01T07:25:40.547Z,1008.02
2019-05-01T07:26:39.008Z,1008.01
2019-05-01T07:27:39.003Z,1007.98
2019-05-01T07:28:39.021Z,1008.02
2019-05-01T07:29:39.838Z,1008.04
2019-05-01T07:30:41.460Z,1008.02
2019-05-01T07:31:38.946Z,1007.99
2019-05-01T07:32:41.182Z,1008.07
2019-05-01T07:33:38.943Z,1008.07
2019-05-01T07:34:38.951Z,1008.06
2019-05-01T07:35:38.906Z,1008.07
2019-05-01T07:36:38.905Z,1007.98
2019-05-01T07:37:38.881Z,1007.99
2019-05-01T07:38:40.480Z,1008.03
2019-05-01T07:39:38.871Z,1008.03
2019-05-01T07:40:38.893Z,1008.03
2019-05-01T07:41:39.044Z,1008.05
2019-05-01T07:42:38.828Z,1007.99
2019-05-01T07:43:38.818Z,1008.03
2019-05-01T07:44:38.841Z,1008.06
2019-05-01T07:45:43.123Z,1008.03
2019-05-01T07:46:38.794Z,1008.05
2019-05-01T07:47:38.780Z,1008.01
2019-05-01T07:48:41.521Z,1008.02
2019-05-01T07:49:38.786Z,1008.07
2019-05-01T07:50:38.781Z,1007.98
2019-05-01T07:51:42.404Z,1008.15
2019-05-01T07:52:38.745Z,1008.17
2019-05-01T07:53:38.744Z,1008.13
2019-05-01T07:54:42.462Z,1008.11
2019-05-01T07:55:38.738Z,1008.08
2019-05-01T07:56:38.683Z,1008.12
2019-05-01T07:57:39.623Z,1008.01
2019-05-01T07:58:38.670Z,1008.17
2019-05-01T07:59:38.653Z,1008.04
2019-05-01T08:00:41.604Z,1008.10
2019-05-01T08:01:38.652Z,1008.08
2019-05-01T08:02:38.616Z,1008.08
2019-05-01T08:03:42.683Z,1008.12
2019-05-01T08:04:39.626Z,1008.15
2019-05-01T08:05:40.906Z,1008.21
2019-05-01T08:06:39.570Z,1008.12
2019-05-01T08:07:38.559Z,1008.25
2019-05-01T08:08:39.779Z,1008.14
2019-05-01T08:09:38.572Z,1008.24
2019-05-01T08:10:38.660Z,1008.32
2019-05-01T08:11:39.105Z,1008.15
2019-05-01T08:12:39.516Z,1008.31
2019-05-01T08:13:38.506Z,1008.34
2019-05-01T08:14:38.506Z,1008.13
2019-05-01T08:15:38.516Z,1008.18
2019-05-01T08:16:42.573Z,1008.13
2019-05-01T08:17:39.529Z,1008.17
2019-05-01T08:18:38.472Z,1008.10
2019-05-01T08:19:39.408Z,1008.15
2019-05-01T08:20:38.457Z,1008.09
2019-05-01T08:21:38.415Z,1008.11
2019-05-01T08:22:39.100Z,1008.14
2019-05-01T08:23:38.482Z,1008.11
2019-05-01T08:24:38.384Z,1008.37
2019-05-01T08:25:38.373Z,1008.35
2019-05-01T08:26:39.573Z,1008.07
2019-05-01T08:27:39.353Z,1008.09
2019-05-01T08:28:38.347Z,1008.13
2019-05-01T08:29:42.031Z,1008.26
2019-05-01T08:30:39.321Z,1008.46
2019-05-01T08:31:38.343Z,1008.46
2019-05-01T08:32:40.782Z,1008.56
2019-05-01T08:33:38.292Z,1008.43
2019-05-01T08:34:49.040Z,1008.55
2019-05-01T08:35:38.272Z,1008.43
2019-05-01T08:36:38.332Z,1008.47
2019-05-01T08:37:38.295Z,1008.32
2019-05-01T08:38:38.226Z,1008.54
2019-05-01T08:39:39.631Z,1008.50
2019-05-01T08:40:39.309Z,1008.19
2019-05-01T08:41:38.241Z,1008.15
2019-05-01T08:42:42.697Z,1008.07
2019-05-01T08:43:39.178Z,1008.06
2019-05-01T08:44:38.233Z,1008.21
2019-05-01T08:45:40.780Z,1008.09
2019-05-01T08:46:38.420Z,1008.17
2019-05-01T08:47:38.217Z,1008.05
2019-05-01T08:48:38.144Z,1008.14
2019-05-01T08:49:41.749Z,1008.50
2019-05-01T08:50:39.126Z,1008.37
2019-05-01T08:51:38.131Z,1008.43
2019-05-01T08:52:38.085Z,1008.58
2019-05-01T08:53:38.106Z,1008.39
2019-05-01T08:54:38.067Z,1008.55
2019-05-01T08:55:39.787Z,1008.58
2019-05-01T08:56:39.094Z,1008.57
2019-05-01T08:57:39.508Z,1008.40
2019-05-01T08:58:38.139Z,1008.31
2019-05-01T08:59:38.037Z,1008.64
2019-05-01T09:00:41.164Z,1008.62
2019-05-01T09:01:38.051Z,1008.26
2019-05-01T09:02:41.803Z,1008.18
2019-05-01T09:03:39.089Z,1008.46
2019-05-01T09:04:38.063Z,1008.72
2019-05-01T09:05:38.013Z,1008.54
2019-05-01T09:06:39.341Z,1008.68
2019-05-01T09:07:39.032Z,1008.65
2019-05-01T09:08:38.014Z,1008.72
2019-05-01T09:09:39.907Z,1008.65
2019-05-01T09:10:38.942Z,1008.66
2019-05-01T09:11:38.151Z,1008.68
2019-05-01T09:12:37.956Z,1008.72
2019-05-01T09:13:37.925Z,1008.69
2019-05-01T09:14:37.917Z,1008.68
2019-05-01T09:15:37.976Z,1008.66
2019-05-01T09:16:37.899Z,1008.63
2019-05-01T09:17:37.891Z,1008.60
2019-05-01T09:18:37.861Z,1008.53
2019-05-01T09:19:37.860Z,1008.62
2019-05-01T09:20:37.856Z,1008.21
2019-05-01T09:21:39.415Z,1008.60
2019-05-01T09:22:37.847Z,1008.60
2019-05-01T09:23:37.893Z,1008.64
2019-05-01T09:24:37.834Z,1008.47
2019-05-01T09:25:37.828Z,1008.65
2019-05-01T09:26:37.827Z,1008.63
2019-05-01T09:27:37.854Z,1008.10
2019-05-01T09:28:39.822Z,1008.09
2019-05-01T09:29:37.850Z,1008.13
2019-05-01T09:30:37.818Z,1008.14
2019-05-01T09:31:37.904Z,1007.99
2019-05-01T09:32:37.899Z,1008.08
2019-05-01T09:33:37.714Z,1008.13
2019-05-01T09:34:37.791Z,1008.13
2019-05-01T09:35:40.150Z,1008.28
2019-05-01T09:36:38.652Z,1008.39
2019-05-01T09:37:37.644Z,1008.52
2019-05-01T09:44:39.937Z,1008.22
2019-05-01T09:45:39.900Z,1007.97
2019-05-01T09:46:39.898Z,1008.19
2019-05-01T09:47:39.886Z,1008.42
2019-05-01T09:48:39.871Z,1008.47
2019-05-01T09:49:39.884Z,1008.38
2019-05-01T09:50:39.856Z,1008.50
2019-05-01T09:51:42.495Z,1008.57
2019-05-01T09:52:40.866Z,1008.40
2019-05-01T09:53:41.243Z,1008.31
2019-05-01T09:54:42.885Z,1008.37
2019-05-01T09:55:40.800Z,1008.37
2019-05-01T09:56:39.793Z,1008.40
2019-05-01T09:57:41.408Z,1008.46
2019-05-01T09:58:39.782Z,1008.39
2019-05-01T09:59:39.796Z,1008.35
2019-05-01T10:00:39.761Z,1008.44
2019-05-01T10:01:39.758Z,1008.46
2019-05-01T10:02:42.264Z,1008.53
2019-05-01T10:03:39.760Z,1008.54
2019-05-01T10:04:39.726Z,1008.50
2019-05-01T10:05:42.848Z,1008.49
2019-05-01T10:06:39.703Z,1008.48
2019-05-01T10:07:39.693Z,1008.51
2019-05-01T10:08:40.383Z,1008.47
2019-05-01T10:09:39.701Z,1008.51
2019-05-01T10:10:39.671Z,1008.27
2019-05-01T10:11:40.714Z,1008.46
2019-05-01T10:12:41.847Z,1008.38
2019-05-01T10:13:40.643Z,1008.49
2019-05-01T10:14:39.709Z,1008.37
2019-05-01T10:15:39.630Z,1008.41
2019-05-01T10:16:39.641Z,1008.33
2019-05-01T10:17:39.634Z,1008.35
2019-05-01T10:18:39.599Z,1008.28
2019-05-01T10:19:39.588Z,1007.90
2019-05-01T10:20:39.598Z,1007.96
2019-05-01T10:21:39.565Z,1008.09
2019-05-01T10:22:39.569Z,1008.07
2019-05-01T10:23:39.566Z,1008.08
2019-05-01T10:24:39.542Z,1007.88
2019-05-01T10:25:42.867Z,1007.83
2019-05-01T10:26:40.518Z,1007.84
2019-05-01T10:27:39.511Z,1007.81
2019-05-01T10:28:39.528Z,1007.84
2019-05-01T10:29:39.489Z,1007.79
2019-05-01T10:30:39.484Z,1007.74
2019-05-01T10:31:42.845Z,1007.91
2019-05-01T10:32:40.468Z,1007.80
2019-05-01T10:33:39.457Z,1007.67
2019-05-01T10:34:43.013Z,1007.72
2019-05-01T10:35:42.860Z,1007.74
2019-05-01T10:36:39.425Z,1007.79
2019-05-01T10:37:39.419Z,1007.70
2019-05-01T10:38:39.995Z,1007.66
2019-05-01T10:39:40.417Z,1007.71
2019-05-01T10:40:39.381Z,1007.71
2019-05-01T10:41:41.305Z,1007.66
2019-05-01T10:42:41.064Z,1007.56
2019-05-01T10:43:39.355Z,1007.58
2019-05-01T10:44:39.363Z,1007.70
2019-05-01T10:45:39.332Z,1007.55
2019-05-01T10:46:39.319Z,1007.56
2019-05-01T10:47:39.337Z,1007.56
2019-05-01T10:48:39.292Z,1007.48
2019-05-01T10:49:39.287Z,1007.45
2019-05-01T10:50:39.282Z,1007.40
2019-05-01T10:51:39.270Z,1007.48
2019-05-01T10:52:39.282Z,1007.35
2019-05-01T10:53:39.243Z,1007.53
2019-05-01T10:54:39.239Z,1007.50
2019-05-01T10:55:39.227Z,1007.46
2019-05-01T10:56:39.240Z,1007.41
2019-05-01T10:57:40.202Z,1007.45
2019-05-01T10:58:39.213Z,1007.44
2019-05-01T10:59:39.177Z,1007.29
2019-05-01T11:00:39.167Z,1007.34
2019-05-01T11:01:39.185Z,1007.34
2019-05-01T11:02:39.151Z,1007.26
2019-05-01T11:03:39.141Z,1007.30
2019-05-01T11:04:39.129Z,1007.19
2019-05-01T11:05:39.146Z,1007.23
2019-05-01T11:06:39.131Z,1007.23
2019-05-01T11:07:39.098Z,1007.14
2019-05-01T11:08:39.088Z,1007.19
2019-05-01T11:09:39.076Z,1007.16
2019-05-01T11:10:39.083Z,1007.13
2019-05-01T11:11:39.048Z,1007.25
2019-05-01T11:12:39.040Z,1007.14
2019-05-01T11:13:39.028Z,1007.10
2019-05-01T11:14:39.024Z,1007.11
2019-05-01T11:15:39.038Z,1007.11
2019-05-01T11:16:39.005Z,1007.11
2019-05-01T11:17:38.991Z,1007.07
2019-05-01T11:18:38.975Z,1007.11
2019-05-01T11:19:38.965Z,1007.12
2019-05-01T11:20:38.981Z,1007.11
2019-05-01T11:21:38.945Z,1007.02
2019-05-01T11:22:38.963Z,1007.06
2019-05-01T11:23:38.927Z,1007.06
2019-05-01T11:24:38.911Z,1007.00
2019-05-01T11:25:38.924Z,1006.97
2019-05-01T11:26:38.896Z,1007.00
2019-05-01T11:27:38.908Z,1007.01
2019-05-01T11:28:38.873Z,1007.02
2019-05-01T11:29:38.861Z,1007.10
2019-05-01T11:30:38.918Z,1007.06
2019-05-01T11:31:38.900Z,1007.11
2019-05-01T11:32:38.845Z,1007.07
2019-05-01T11:33:38.815Z,1007.01
2019-05-01T11:34:38.809Z,1007.00
2019-05-01T11:35:38.796Z,1007.03
2019-05-01T11:36:38.791Z,1006.99
2019-05-01T11:37:38.796Z,1006.95
2019-05-01T11:38:38.771Z,1006.99
2019-05-01T11:39:40.873Z,1006.98
2019-05-01T11:40:38.816Z,1007.03
2019-05-01T11:41:38.729Z,1006.97
2019-05-01T11:42:38.749Z,1006.88
2019-05-01T11:43:38.707Z,1006.83
2019-05-01T11:44:38.694Z,1006.91
2019-05-01T11:45:38.682Z,1006.91
2019-05-01T11:46:38.678Z,1006.93
2019-05-01T11:47:38.715Z,1006.91
2019-05-01T11:48:38.658Z,1006.91
2019-05-01T11:49:38.646Z,1006.88
2019-05-01T11:50:38.631Z,1006.91
2019-05-01T11:51:38.620Z,1006.95
2019-05-01T11:52:38.614Z,1006.91
2019-05-01T11:53:38.624Z,1006.81
2019-05-01T11:54:38.593Z,1006.85
2019-05-01T11:55:38.582Z,1006.80
2019-05-01T11:56:38.569Z,1006.80
2019-05-01T11:57:38.557Z,1006.83
2019-05-01T11:58:38.608Z,1006.85
2019-05-01T11:59:38.539Z,1006.77
2019-05-01T12:00:38.531Z,1006.82
2019-05-01T12:01:38.522Z,1006.80
2019-05-01T12:02:38.534Z,1006.81
2019-05-01T12:03:38.494Z,1006.80
2019-05-01T12:04:38.480Z,1006.79
2019-05-01T12:05:38.469Z,1006.76
2019-05-01T12:06:38.466Z,1006.77
2019-05-01T12:07:38.497Z,1006.74
2019-05-01T12:08:38.447Z,1006.69
2019-05-01T12:09:38.430Z,1006.71
2019-05-01T12:10:38.415Z,1006.67
2019-05-01T12:11:38.406Z,1006.74